KPSK/PSK METAR and TAF weather

Enter ICAO airport designator
Station Type Date Time Source
KPSK METAR 2019/06/16 12:35 UTC NOAA

KPSK 161235Z AUTO 24005KT 10SM CLR 20/17 A3010 RMK AO2 T02000167


Station Type Date Time Source
KPSK Decoded METAR 2019/06/16 12:35 UTC NOAA

Dublin / New River Valley, VA, United States (KPSK) 37-08N 080-41W
Jun 16, 2019 - 08:35 AM EDT / 2019.06.16 1235 UTC
Wind: from the WSW (240 degrees) at 6 MPH (5 KT):0
Visibility: 10 mile(s):0
Sky conditions: clear
Temperature: 68.0 F (20.0 C)
Dew Point: 62.1 F (16.7 C)
Relative Humidity: 81%
Pressure (altimeter): 30.1 in. Hg (1019 hPa)
ob: KPSK 161235Z AUTO 24005KT 10SM CLR 20/17 A3010 RMK AO2 T02000167
cycle: 12

Station Type Date Time Source
KPSK TAF UTC NOAA

Error!

Example: see airport list